ADDS METAR Data INFO
IDs: Format: Raw Decoded Include TAF

Data at: 2053 UTC 26 May 2017

KCOD 262027Z AUTO 32005KT 10SM -RA OVC026 07/01 A2997 RMK AO2 P0000
KCOD 261956Z AUTO VRB03KT 10SM -RA BKN035 OVC045 08/M01 A2996 RMK AO2 SLP144 P0000 T00831006
KCOD 261856Z AUTO 31005KT 10SM -RA FEW028 BKN037 BKN046 09/M01 A2995 RMK AO2 RAB40 SLP138 P0000 T00891006
KCOD 261756Z AUTO 01011KT 10SM FEW037 SCT044 BKN055 10/M01 A2995 RMK AO2 SLP136 T01001006 10100 20067 54000
KCOD 261656Z AUTO 36010KT 10SM OVC060 09/M01 A2995 RMK AO2 SLP135 T00941011
KCOD 261556Z AUTO 04007KT 10SM FEW090 09/M01 A2995 RMK AO2 SLP137 T00941006
KCOD 261456Z AUTO 03006KT 10SM CLR 09/00 A2995 RMK AO2 SLP134 T00940000 50000
KCOD 261356Z AUTO 00000KT 10SM CLR 08/02 A2995 RMK AO2 SLP135 T00830017
KCOD 261256Z AUTO 00000KT 10SM OVC070 08/02 A2996 RMK AO2 SLP139 T00780022
KCOD 261156Z AUTO 22006KT 10SM OVC065 07/02 A2995 RMK AO2 SLP136 T00670017 10083 20061 51004
KCOD 261056Z AUTO 24004KT 10SM OVC065 07/01 A2995 RMK AO2 SLP134 T00670011
KCOD 260956Z AUTO 00000KT 10SM BKN070 BKN090 07/01 A2994 RMK AO2 SLP129 T00670006
KCOD 260856Z AUTO 00000KT 10SM CLR 07/01 A2994 RMK AO2 SLP127 T00670006 50000
KCOD 260756Z AUTO 00000KT 10SM BKN080 07/00 A2994 RMK AO2 SLP133 T00720000
KCOD 260656Z AUTO 00000KT 10SM OVC110 08/M02 A2994 RMK AO2 SLP133 T00781017
KCOD 260556Z AUTO 09004KT 10SM SCT065 BKN100 09/M02 A2994 RMK AO2 SLP128 T00891017 10122 20083 401440011 51016
KCOD 260456Z AUTO 00000KT 10SM OVC095 09/M02 A2993 RMK AO2 SLP123 T00891017
KCOD 260356Z AUTO 02003KT 10SM BKN070 BKN085 09/M02 A2991 RMK AO2 SLP118 T00941022
KCOD 260256Z AUTO 03003KT 10SM FEW060 OVC070 10/M02 A2988 RMK AO2 SLP107 T01001017 53023
KCOD 260156Z AUTO 36009KT 10SM OVC070 11/M02 A2985 RMK AO2 SLP104 T01061022
KCOD 260056Z AUTO 02014G17KT 10SM SCT050 11/M02 A2982 RMK AO2 SLP094 T01111017
KCOD 252356Z AUTO 02016G20KT 10SM FEW047 SCT060 12/M02 A2980 RMK AO2 SLP091 T01221022 10144 20094 53012
KCOD 252256Z AUTO 35013KT 10SM CLR 13/M02 A2978 RMK AO2 SLP080 T01331022
KCOD 252156Z AUTO 02016G19KT 10SM BKN060 BKN070 14/M02 A2977 RMK AO2 SLP071 T01441017
KCOD 252056Z AUTO 02011G15KT 10SM FEW080 14/M01 A2976 RMK AO2 SLP064 T01391006 51012
KCOD 251956Z AUTO 01006KT 10SM OVC070 11/M01 A2975 RMK AO2 SLP066 T01061006
KCOD 251856Z AUTO 03011KT 10SM OVC075 11/M02 A2974 RMK AO2 SLP058 T01061017
KCOD 251756Z AUTO 02012G15KT 10SM OVC070 11/M04 A2972 RMK AO2 SLP050 T01061044 10117 20022 53019
KCOD 251656Z AUTO 36013KT 10SM FEW044 OVC075 12/M05 A2969 RMK AO2 SLP033 T01171050
KCOD 251556Z AUTO 34014G20KT 10SM FEW095 12/M06 A2967 RMK AO2 SLP027 T01171061
KCOD 251456Z AUTO 04007KT 10SM CLR 11/M04 A2965 RMK AO2 SLP023 T01061044 53010
KCOD 251356Z AUTO 04003KT 10SM CLR 07/M03 A2964 RMK AO2 SLP019 T00671028
KCOD 251256Z AUTO 15007KT 10SM FEW120 05/M04 A2963 RMK AO2 SLP016 T00501044
KCOD 251156Z AUTO 15006KT 10SM CLR 02/M06 A2962 RMK AO2 SLP005 T00221056 10106 20011 51013 FZRANO
KCOD 251056Z AUTO 22005KT 10SM CLR 03/M04 A2961 RMK AO2 SLP997 T00331044
KCOD 250956Z AUTO 00000KT 10SM CLR 05/M07 A2959 RMK AO2 SLP987 T00501067
KCOD 250856Z AUTO 33006KT 10SM CLR 07/M07 A2958 RMK AO2 SLP979 T00671072 53003


Page loaded:  20:53 UTC  |   01:53 PM Pacific  |   02:53 PM Mountain  |   03:53 PM Central  |   04:53 PM Eastern

 

ADVISORIES

FORECASTS

FORECASTS

OBSERVATIONS

USER TOOLS

ABOUT US